Time;durP1;ratioP1;P1;durP2;ratioP2;P2;SDS_P1;SDS_P2;PMS_P1;PMS_P2;Temp;Humidity;BMP_temperature;BMP_pressure;BME280_temperature;BME280_humidity;BME280_pressure;Samples;Min_cycle;Max_cycle;Signal;HPM_P1;HPM_P2
2024/02/19 00:01:32;;;;;;;;;;;;;;;1.19;68.61;102692.98;107570;1254;111139;-63
2024/02/19 00:04:03;;;;;;;;;;;;;;;1.18;68.84;102699.89;107629;1257;108369;-63
2024/02/19 00:06:32;;;;;;;;;;;;;;;1.19;68.86;102701.81;107604;1257;108295;-66
2024/02/19 00:09:01;;;;;;;;;;;;;;;1.21;68.97;102701.42;107591;1251;96525;-63
2024/02/19 00:11:29;;;;;;;;;;;;;;;1.24;68.97;102697.84;107643;1256;96480;-64
2024/02/19 00:13:58;;;;;;;;;;;;;;;1.27;69.17;102697.27;107615;1254;109028;-63
2024/02/19 00:16:27;;;;;;;;;;;;;;;1.29;68.80;102693.16;107634;1254;107546;-63
2024/02/19 00:18:55;;;;;;;;;;;;;;;1.30;68.92;102697.91;107578;1251;107402;-62
2024/02/19 00:21:24;;;;;;;;;;;;;;;1.31;69.05;102699.11;107567;1254;96485;-64
2024/02/19 00:23:52;;;;;;;;;;;;;;;1.32;68.95;102698.21;107549;1254;96499;-64
2024/02/19 00:26:20;;;;;;;;;;;;;;;1.33;69.16;102689.89;107607;1254;110750;-65
2024/02/19 00:28:49;;;;;;;;;;;;;;;1.33;69.06;102689.90;107585;1254;108825;-64
2024/02/19 00:31:17;;;;;;;;;;;;;;;1.33;69.26;102688.83;107681;1254;107150;-63
2024/02/19 00:33:47;;;;;;;;;;;;;;;1.34;69.46;102683.69;107634;1254;96490;-62
2024/02/19 00:36:16;;;;;;;;;;;;;;;1.35;69.40;102679.06;107645;1252;95430;-63
2024/02/19 00:38:44;;;;;;;;;;;;;;;1.38;69.55;102679.38;107584;1254;110328;-66
2024/02/19 00:41:12;;;;;;;;;;;;;;;1.41;69.77;102676.48;107644;1254;108400;-65
2024/02/19 00:43:40;;;;;;;;;;;;;;;1.41;69.62;102673.30;107590;1254;108013;-64
2024/02/19 00:46:09;;;;;;;;;;;;;;;1.40;69.30;102668.02;107684;1254;96502;-62
2024/02/19 00:48:37;;;;;;;;;;;;;;;1.38;69.51;102666.65;107636;1254;96455;-64
2024/02/19 00:51:06;;;;;;;;;;;;;;;1.37;69.62;102668.95;107602;1251;110517;-64
2024/02/19 00:53:34;;;;;;;;;;;;;;;1.36;69.48;102670.03;107594;1254;108345;-64
2024/02/19 00:56:02;;;;;;;;;;;;;;;1.35;69.79;102668.99;107647;1253;107272;-64
2024/02/19 00:58:30;;;;;;;;;;;;;;;1.34;69.79;102662.11;107602;1254;96567;-65
2024/02/19 01:00:59;;;;;;;;;;;;;;;1.33;69.78;102666.02;107623;1251;96395;-62
2024/02/19 01:03:27;;;;;;;;;;;;;;;1.33;69.91;102664.43;107525;1251;110495;-64
2024/02/19 01:05:56;;;;;;;;;;;;;;;1.35;69.92;102661.05;107507;1254;109073;-63
2024/02/19 01:08:24;;;;;;;;;;;;;;;1.36;70.13;102661.20;107637;1254;108862;-63
2024/02/19 01:10:52;;;;;;;;;;;;;;;1.34;70.12;102653.98;107519;1251;96485;-63
2024/02/19 01:13:21;;;;;;;;;;;;;;;1.34;70.17;102654.16;107555;1251;96606;-64
2024/02/19 01:15:49;;;;;;;;;;;;;;;1.33;70.29;102647.45;107458;1251;110393;-63
2024/02/19 01:18:17;;;;;;;;;;;;;;;1.34;70.11;102643.21;107474;1251;107768;-63
2024/02/19 01:20:46;;;;;;;;;;;;;;;1.35;70.16;102639.48;107482;1253;107781;-63
2024/02/19 01:23:16;;;;;;;;;;;;;;;1.38;70.40;102631.81;107604;1254;96497;-65
2024/02/19 01:25:45;;;;;;;;;;;;;;;1.41;70.39;102621.14;107699;1254;97114;-64
2024/02/19 01:28:14;;;;;;;;;;;;;;;1.45;70.58;102607.09;107627;1251;110527;-64
2024/02/19 01:30:44;;;;;;;;;;;;;;;1.50;70.64;102603.63;107632;1251;108310;-64
2024/02/19 01:33:13;;;;;;;;;;;;;;;1.55;70.60;102597.87;107552;1256;108312;-64
2024/02/19 01:35:41;;;;;;;;;;;;;;;1.59;70.67;102592.13;107545;1251;96469;-64
2024/02/19 01:38:09;;;;;;;;;;;;;;;1.62;70.65;102587.45;107529;1251;96477;-64
2024/02/19 01:40:37;;;;;;;;;;;;;;;1.64;70.78;102584.06;107467;1251;110416;-63
2024/02/19 01:43:07;;;;;;;;;;;;;;;1.65;70.35;102578.56;107498;1251;109039;-62
2024/02/19 01:45:36;;;;;;;;;;;;;;;1.63;70.17;102580.55;107508;1251;106683;-63
2024/02/19 01:48:05;;;;;;;;;;;;;;;1.62;70.16;102578.06;107484;1251;96469;-63
2024/02/19 01:50:35;;;;;;;;;;;;;;;1.65;70.16;102576.95;107607;1254;96612;-63
2024/02/19 01:53:07;;;;;;;;;;;;;;;1.69;70.35;102576.70;107618;1253;110856;-64
2024/02/19 01:55:36;;;;;;;;;;;;;;;1.69;70.33;102579.34;107641;1254;108732;-65
2024/02/19 01:58:07;;;;;;;;;;;;;;;1.67;70.27;102577.80;107601;1254;108257;-64
2024/02/19 02:00:41;;;;;;;;;;;;;;;1.66;70.27;102579.43;107610;1254;96486;-64
2024/02/19 02:03:10;;;;;;;;;;;;;;;1.62;69.98;102580.58;107633;1254;96475;-63
2024/02/19 02:05:38;;;;;;;;;;;;;;;1.55;69.95;102580.17;107621;1253;109448;-63
2024/02/19 02:08:07;;;;;;;;;;;;;;;1.52;69.96;102575.11;107590;1254;107646;-62
2024/02/19 02:10:35;;;;;;;;;;;;;;;1.49;70.14;102577.11;107546;1254;107397;-63
2024/02/19 02:13:03;;;;;;;;;;;;;;;1.49;70.23;102579.07;107525;1254;96535;-64
2024/02/19 02:15:31;;;;;;;;;;;;;;;1.46;70.47;102581.27;107625;1254;96822;-64
2024/02/19 02:18:00;;;;;;;;;;;;;;;1.44;70.54;102583.06;107578;1254;111548;-63
2024/02/19 02:20:31;;;;;;;;;;;;;;;1.44;70.49;102584.13;107646;1257;108369;-62
2024/02/19 02:23:00;;;;;;;;;;;;;;;1.46;70.59;102583.21;107633;1254;107527;-63
2024/02/19 02:25:28;;;;;;;;;;;;;;;1.48;70.76;102588.11;107632;1254;96475;-63
2024/02/19 02:27:57;;;;;;;;;;;;;;;1.50;70.76;102587.34;107553;1251;97067;-61
2024/02/19 02:30:25;;;;;;;;;;;;;;;1.52;70.70;102587.49;107489;1251;110931;-63
2024/02/19 02:32:55;;;;;;;;;;;;;;;1.53;70.71;102584.27;107536;1251;106992;-63
2024/02/19 02:35:24;;;;;;;;;;;;;;;1.55;70.73;102586.20;107505;1251;108471;-64
2024/02/19 02:37:52;;;;;;;;;;;;;;;1.54;70.63;102588.69;107576;1251;96619;-65
2024/02/19 02:40:20;;;;;;;;;;;;;;;1.50;70.48;102591.24;107612;1253;96606;-63
2024/02/19 02:42:49;;;;;;;;;;;;;;;1.48;70.36;102595.02;107655;1252;110649;-64
2024/02/19 02:45:17;;;;;;;;;;;;;;;1.46;70.56;102595.05;107646;1254;107069;-65
2024/02/19 02:47:45;;;;;;;;;;;;;;;1.43;70.61;102589.45;107610;1254;107516;-65
2024/02/19 02:50:14;;;;;;;;;;;;;;;1.39;70.38;102598.55;107593;1254;96563;-65
2024/02/19 02:52:42;;;;;;;;;;;;;;;1.34;70.16;102593.88;107639;1253;96514;-65
2024/02/19 02:55:10;;;;;;;;;;;;;;;1.33;70.37;102594.26;107621;1256;110402;-63
2024/02/19 02:57:38;;;;;;;;;;;;;;;1.32;70.61;102597.98;107656;1254;107951;-65
2024/02/19 03:00:08;;;;;;;;;;;;;;;1.31;70.41;102598.36;107655;1256;108251;-65
2024/02/19 03:02:37;;;;;;;;;;;;;;;1.29;70.18;102600.01;107624;1253;96463;-64
2024/02/19 03:05:05;;;;;;;;;;;;;;;1.26;70.15;102600.93;107625;1254;96468;-64
2024/02/19 03:07:33;;;;;;;;;;;;;;;1.24;70.22;102600.63;107689;1254;109924;-63
2024/02/19 03:10:03;;;;;;;;;;;;;;;1.22;70.33;102597.46;107660;1254;107893;-64
2024/02/19 03:12:31;;;;;;;;;;;;;;;1.20;70.29;102593.98;107590;1252;108252;-63
2024/02/19 03:14:59;;;;;;;;;;;;;;;1.17;70.30;102595.45;107659;1254;96526;-63
2024/02/19 03:17:28;;;;;;;;;;;;;;;1.14;70.44;102595.16;107657;1256;96506;-64
2024/02/19 03:19:56;;;;;;;;;;;;;;;1.10;70.10;102587.27;107581;1250;110635;-64
2024/02/19 03:22:25;;;;;;;;;;;;;;;1.08;70.44;102586.09;107485;1251;107816;-63
2024/02/19 03:24:54;;;;;;;;;;;;;;;1.07;70.26;102585.05;107469;1251;106584;-61
2024/02/19 03:27:22;;;;;;;;;;;;;;;1.05;70.24;102584.19;107757;1254;96516;-62
2024/02/19 03:29:51;;;;;;;;;;;;;;;1.04;70.51;102579.98;107568;1251;96549;-62
2024/02/19 03:32:19;;;;;;;;;;;;;;;1.04;70.63;102585.63;107612;1251;110422;-64
2024/02/19 03:34:47;;;;;;;;;;;;;;;1.03;70.51;102589.36;107591;1251;107409;-68
2024/02/19 03:37:16;;;;;;;;;;;;;;;1.02;70.78;102590.29;107527;1251;107844;-63
2024/02/19 03:39:44;;;;;;;;;;;;;;;1.02;70.83;102587.80;107491;1253;96469;-64
2024/02/19 03:42:13;;;;;;;;;;;;;;;1.02;70.78;102586.04;107636;1253;96475;-62
2024/02/19 03:44:41;;;;;;;;;;;;;;;1.03;70.63;102585.30;107640;1254;110427;-62
2024/02/19 03:47:10;;;;;;;;;;;;;;;1.05;70.73;102582.43;107650;1253;108385;-64
2024/02/19 03:49:38;;;;;;;;;;;;;;;1.07;70.54;102571.80;107609;1251;108346;-63
2024/02/19 03:52:07;;;;;;;;;;;;;;;1.09;70.53;102566.81;107525;1251;96471;-65
2024/02/19 03:54:35;;;;;;;;;;;;;;;1.09;70.58;102562.55;107549;1251;96546;-63
2024/02/19 03:57:04;;;;;;;;;;;;;;;1.11;70.57;102571.02;107594;1253;109538;-62
2024/02/19 03:59:32;;;;;;;;;;;;;;;1.11;70.69;102568.02;107673;1253;108150;-62
2024/02/19 04:02:01;;;;;;;;;;;;;;;1.11;70.66;102563.05;107605;1252;108419;-63
2024/02/19 04:04:29;;;;;;;;;;;;;;;1.12;70.62;102556.52;107588;1250;96478;-63
2024/02/19 04:06:58;;;;;;;;;;;;;;;1.11;70.53;102557.94;107561;1250;97138;-62
2024/02/19 04:09:26;;;;;;;;;;;;;;;1.09;70.04;102559.38;107525;1251;111120;-64
2024/02/19 04:11:55;;;;;;;;;;;;;;;1.10;70.48;102557.59;107629;1251;108301;-66
2024/02/19 04:14:25;;;;;;;;;;;;;;;1.11;70.27;102554.23;107704;1251;107902;-65
2024/02/19 04:16:53;;;;;;;;;;;;;;;1.14;70.43;102558.05;107620;1251;96570;-62
2024/02/19 04:19:22;;;;;;;;;;;;;;;1.15;70.61;102557.15;107605;1254;96481;-63
2024/02/19 04:21:51;;;;;;;;;;;;;;;1.14;70.57;102554.69;107620;1250;109429;-61
2024/02/19 04:24:19;;;;;;;;;;;;;;;1.13;70.45;102552.76;107541;1254;107920;-64
2024/02/19 04:26:48;;;;;;;;;;;;;;;1.12;70.45;102550.48;107601;1253;106851;-63
2024/02/19 04:29:16;;;;;;;;;;;;;;;1.13;70.60;102550.82;107639;1253;96487;-64
2024/02/19 04:31:44;;;;;;;;;;;;;;;1.13;70.70;102549.40;107658;1253;96495;-63
2024/02/19 04:34:12;;;;;;;;;;;;;;;1.13;70.59;102556.66;107708;1251;109722;-62
2024/02/19 04:36:41;;;;;;;;;;;;;;;1.11;70.50;102555.63;107629;1251;108372;-62
2024/02/19 04:39:10;;;;;;;;;;;;;;;1.11;70.67;102555.10;107568;1252;107297;-63
2024/02/19 04:41:39;;;;;;;;;;;;;;;1.10;70.53;102548.05;107580;1254;96480;-63
2024/02/19 04:44:07;;;;;;;;;;;;;;;1.11;70.64;102547.16;107660;1256;97148;-64
2024/02/19 04:46:38;;;;;;;;;;;;;;;1.10;70.51;102545.94;107631;1251;110086;-63
2024/02/19 04:49:07;;;;;;;;;;;;;;;1.11;70.45;102543.27;107553;1252;107929;-64
2024/02/19 04:51:35;;;;;;;;;;;;;;;1.12;70.72;102543.24;107622;1252;107577;-63
2024/02/19 04:54:03;;;;;;;;;;;;;;;1.13;70.76;102546.59;107611;1254;96476;-64
2024/02/19 04:56:31;;;;;;;;;;;;;;;1.12;70.72;102546.77;107628;1253;96559;-64
2024/02/19 04:59:00;;;;;;;;;;;;;;;1.11;70.60;102550.88;107636;1253;110563;-62
2024/02/19 05:01:31;;;;;;;;;;;;;;;1.09;70.78;102542.05;107612;1252;107913;-63
2024/02/19 05:04:00;;;;;;;;;;;;;;;1.09;70.95;102545.59;107652;1254;108207;-64
2024/02/19 05:06:29;;;;;;;;;;;;;;;1.09;70.92;102540.66;107592;1253;96600;-64
2024/02/19 05:08:57;;;;;;;;;;;;;;;1.08;70.83;102540.50;107618;1251;96629;-64
2024/02/19 05:11:25;;;;;;;;;;;;;;;1.08;71.24;102538.21;107572;1251;110377;-63
2024/02/19 05:13:54;;;;;;;;;;;;;;;1.08;71.07;102542.60;107592;1254;108301;-63
2024/02/19 05:16:22;;;;;;;;;;;;;;;1.09;71.16;102538.17;107569;1251;107212;-63
2024/02/19 05:18:51;;;;;;;;;;;;;;;1.11;71.12;102528.79;107641;1251;96497;-64
2024/02/19 05:21:19;;;;;;;;;;;;;;;1.08;70.89;102531.29;107628;1250;96593;-64
2024/02/19 05:23:48;;;;;;;;;;;;;;;1.09;70.97;102530.75;107547;1251;110106;-65
2024/02/19 05:26:23;;;;;;;;;;;;;;;1.09;70.99;102530.23;107594;1250;107973;-66
2024/02/19 05:28:52;;;;;;;;;;;;;;;1.10;71.10;102531.97;107593;1251;108529;-65
2024/02/19 05:31:34;;;;;;;;;;;;;;;1.11;70.95;102532.48;107623;1250;96500;-65
2024/02/19 05:34:04;;;;;;;;;;;;;;;1.11;70.77;102532.66;107613;1254;96369;-68
2024/02/19 05:36:32;;;;;;;;;;;;;;;1.12;70.59;102529.64;107634;1254;109745;-64
2024/02/19 05:39:01;;;;;;;;;;;;;;;1.13;70.55;102526.08;107640;1253;108465;-63
2024/02/19 05:41:29;;;;;;;;;;;;;;;1.10;70.01;102526.14;107601;1251;107288;-62
2024/02/19 05:43:57;;;;;;;;;;;;;;;1.09;69.94;102522.27;107623;1251;96488;-63
2024/02/19 05:46:26;;;;;;;;;;;;;;;1.09;69.83;102519.26;107638;1251;96552;-63
2024/02/19 05:48:54;;;;;;;;;;;;;;;1.12;69.94;102523.63;107627;1253;110265;-62
2024/02/19 05:51:23;;;;;;;;;;;;;;;1.15;69.95;102529.56;107633;1251;108306;-63
2024/02/19 05:53:51;;;;;;;;;;;;;;;1.19;70.05;102536.73;107632;1251;108598;-64
2024/02/19 05:56:19;;;;;;;;;;;;;;;1.22;69.95;102542.15;107611;1254;96491;-64
2024/02/19 05:58:48;;;;;;;;;;;;;;;1.24;69.68;102544.95;107564;1251;96463;-64
2024/02/19 06:01:16;;;;;;;;;;;;;;;1.24;69.51;102544.21;107562;1251;110849;-62
2024/02/19 06:03:45;;;;;;;;;;;;;;;1.26;69.34;102544.36;107736;1254;107328;-64
2024/02/19 06:06:14;;;;;;;;;;;;;;;1.28;69.14;102547.52;107622;1252;109266;-64
2024/02/19 06:08:42;;;;;;;;;;;;;;;1.31;69.19;102544.26;107607;1253;96599;-63
2024/02/19 06:11:11;;;;;;;;;;;;;;;1.34;69.03;102547.58;107668;1254;96476;-65
2024/02/19 06:13:40;;;;;;;;;;;;;;;1.37;68.81;102546.60;107646;1254;110469;-62
2024/02/19 06:16:08;;;;;;;;;;;;;;;1.40;68.54;102550.43;107611;1254;108454;-63
2024/02/19 06:18:36;;;;;;;;;;;;;;;1.42;68.30;102551.11;107592;1253;108490;-64
2024/02/19 06:21:05;;;;;;;;;;;;;;;1.45;68.00;102552.27;107673;1252;96485;-63
2024/02/19 06:23:33;;;;;;;;;;;;;;;1.49;67.96;102550.95;107680;1252;96559;-62
2024/02/19 06:26:02;;;;;;;;;;;;;;;1.52;67.84;102552.83;107670;1253;110448;-64
2024/02/19 06:28:30;;;;;;;;;;;;;;;1.56;67.09;102552.92;107482;1257;108514;-63
2024/02/19 06:30:58;;;;;;;;;;;;;;;1.59;66.61;102552.33;107606;1251;106831;-65
2024/02/19 06:33:27;;;;;;;;;;;;;;;1.61;66.11;102553.89;107490;1251;96578;-65
2024/02/19 06:35:55;;;;;;;;;;;;;;;1.62;66.13;102552.61;107612;1250;96373;-63
2024/02/19 06:38:23;;;;;;;;;;;;;;;1.65;65.87;102545.64;107526;1251;110317;-63
2024/02/19 06:40:55;;;;;;;;;;;;;;;1.70;65.76;102543.59;107549;1254;107917;-63
2024/02/19 06:43:24;;;;;;;;;;;;;;;1.76;66.07;102541.34;107593;1252;107696;-63
2024/02/19 06:45:52;;;;;;;;;;;;;;;1.81;65.62;102537.70;107600;1252;96949;-64
2024/02/19 06:48:21;;;;;;;;;;;;;;;1.84;65.57;102539.90;107547;1253;96642;-62
2024/02/19 06:50:49;;;;;;;;;;;;;;;1.91;65.33;102540.30;107623;1253;109090;-64
2024/02/19 06:53:17;;;;;;;;;;;;;;;1.97;65.42;102542.08;107615;1253;108305;-63
2024/02/19 06:55:46;;;;;;;;;;;;;;;2.02;65.29;102537.54;107637;1253;108324;-62
2024/02/19 06:58:14;;;;;;;;;;;;;;;2.07;65.32;102537.95;107604;1252;96486;-63
2024/02/19 07:00:42;;;;;;;;;;;;;;;2.10;65.38;102540.36;107539;1254;96487;-63
2024/02/19 07:03:10;;;;;;;;;;;;;;;2.15;65.53;102542.17;107613;1254;109610;-63
2024/02/19 07:05:39;;;;;;;;;;;;;;;2.22;65.24;102541.83;107591;1253;108643;-65
2024/02/19 07:08:08;;;;;;;;;;;;;;;2.28;65.26;102535.30;107589;1254;107147;-64
2024/02/19 07:10:36;;;;;;;;;;;;;;;2.35;65.34;102533.02;107580;1254;96529;-64
2024/02/19 07:13:04;;;;;;;;;;;;;;;2.42;64.73;102530.69;107602;1251;96653;-64
2024/02/19 07:15:33;;;;;;;;;;;;;;;2.52;64.88;102530.25;107527;1253;109447;-64
2024/02/19 07:18:01;;;;;;;;;;;;;;;2.60;63.74;102527.92;107628;1252;107923;-64
2024/02/19 07:20:29;;;;;;;;;;;;;;;2.61;63.52;102528.80;107608;1253;107431;-65
2024/02/19 07:23:00;;;;;;;;;;;;;;;2.60;63.30;102530.05;107535;1251;96504;-64
2024/02/19 07:25:28;;;;;;;;;;;;;;;2.63;63.47;102528.54;107600;1254;96575;-66
2024/02/19 07:27:57;;;;;;;;;;;;;;;2.67;63.42;102525.96;107612;1254;110685;-66
2024/02/19 07:30:25;;;;;;;;;;;;;;;2.71;63.09;102520.55;107585;1253;107715;-62
2024/02/19 07:32:53;;;;;;;;;;;;;;;2.74;62.88;102524.88;107610;1255;107861;-64
2024/02/19 07:35:22;;;;;;;;;;;;;;;2.77;62.61;102526.23;107533;1253;96610;-64
2024/02/19 07:37:50;;;;;;;;;;;;;;;2.78;62.24;102524.61;107613;1254;96561;-64
2024/02/19 07:40:20;;;;;;;;;;;;;;;2.81;62.12;102529.48;107591;1254;109352;-63
2024/02/19 07:42:49;;;;;;;;;;;;;;;2.84;61.49;102525.68;107533;1254;108360;-64
2024/02/19 07:45:17;;;;;;;;;;;;;;;2.87;61.79;102523.29;107578;1256;108259;-63
2024/02/19 07:47:45;;;;;;;;;;;;;;;2.92;61.97;102521.05;107590;1253;96601;-63
2024/02/19 07:50:14;;;;;;;;;;;;;;;2.98;61.88;102516.98;107585;1251;96567;-63
2024/02/19 07:52:45;;;;;;;;;;;;;;;3.05;61.88;102514.13;107534;1250;110836;-64
2024/02/19 07:55:13;;;;;;;;;;;;;;;3.06;61.68;102512.83;107585;1254;108161;-63
2024/02/19 07:57:42;;;;;;;;;;;;;;;3.07;61.56;102516.70;107516;1254;108869;-62
2024/02/19 08:00:10;;;;;;;;;;;;;;;3.12;61.28;102510.02;107669;1251;96615;-63
2024/02/19 08:02:39;;;;;;;;;;;;;;;3.17;61.20;102512.69;107567;1252;97936;-62
2024/02/19 08:05:08;;;;;;;;;;;;;;;3.22;61.52;102510.05;107582;1253;110375;-63
2024/02/19 08:07:36;;;;;;;;;;;;;;;3.27;61.08;102508.66;107604;1253;107153;-61
2024/02/19 08:10:04;;;;;;;;;;;;;;;3.30;60.35;102506.27;107523;1253;107601;-65
2024/02/19 08:12:34;;;;;;;;;;;;;;;3.31;59.63;102511.58;107556;1254;96558;-63
2024/02/19 08:15:08;;;;;;;;;;;;;;;3.34;59.56;102510.59;107604;1254;98364;-64
2024/02/19 08:17:36;;;;;;;;;;;;;;;3.39;59.58;102507.61;107612;1251;109375;-64
2024/02/19 08:20:06;;;;;;;;;;;;;;;3.45;59.74;102511.51;107618;1254;108826;-63
2024/02/19 08:22:34;;;;;;;;;;;;;;;3.51;59.92;102508.14;107582;1251;107177;-66
2024/02/19 08:25:02;;;;;;;;;;;;;;;3.55;58.76;102508.71;107593;1252;97263;-63
2024/02/19 08:27:30;;;;;;;;;;;;;;;3.57;58.75;102500.50;107591;1253;96420;-69
2024/02/19 08:29:59;;;;;;;;;;;;;;;3.57;57.21;102502.27;107673;1254;110400;-63
2024/02/19 08:32:27;;;;;;;;;;;;;;;3.49;56.59;102500.93;107658;1251;108988;-64
2024/02/19 08:34:56;;;;;;;;;;;;;;;3.47;57.03;102501.34;107599;1254;107025;-65
2024/02/19 08:37:24;;;;;;;;;;;;;;;3.53;57.06;102496.19;107656;1253;96523;-63
2024/02/19 08:39:52;;;;;;;;;;;;;;;3.57;57.09;102498.88;107584;1254;96571;-67
2024/02/19 08:42:20;;;;;;;;;;;;;;;3.64;56.50;102496.19;107595;1251;111500;-63
2024/02/19 08:44:49;;;;;;;;;;;;;;;3.62;55.08;102498.91;107619;1254;108336;-63
2024/02/19 08:47:17;;;;;;;;;;;;;;;3.58;54.92;102498.32;106763;1254;1119580;-64
2024/02/19 08:49:46;;;;;;;;;;;;;;;3.57;54.56;102496.77;107573;1254;96376;-64
2024/02/19 08:52:14;;;;;;;;;;;;;;;3.64;55.06;102496.70;107614;1254;96377;-63
2024/02/19 08:54:43;;;;;;;;;;;;;;;3.77;55.75;102501.27;107643;1251;110953;-63
2024/02/19 08:57:11;;;;;;;;;;;;;;;3.88;55.10;102499.68;107498;1252;107926;-66
2024/02/19 08:59:44;;;;;;;;;;;;;;;3.95;54.72;102499.28;107660;1253;108141;-63
2024/02/19 09:02:13;;;;;;;;;;;;;;;3.97;54.06;102500.45;107532;1254;96587;-66
2024/02/19 09:04:42;;;;;;;;;;;;;;;3.95;54.33;102501.58;107584;1251;96376;-64
2024/02/19 09:07:12;;;;;;;;;;;;;;;4.00;54.58;102505.88;107515;1252;110632;-61
2024/02/19 09:09:44;;;;;;;;;;;;;;;4.07;54.62;102506.15;107658;1254;106993;-64
2024/02/19 09:12:13;;;;;;;;;;;;;;;4.10;53.86;102502.15;107643;1254;107745;-63
2024/02/19 09:14:41;;;;;;;;;;;;;;;4.06;53.12;102503.72;107524;1253;96531;-64
2024/02/19 09:17:09;;;;;;;;;;;;;;;4.04;53.20;102505.89;107602;1252;96506;-64
2024/02/19 09:19:38;;;;;;;;;;;;;;;4.11;53.89;102503.73;107577;1253;110952;-64
2024/02/19 09:22:07;;;;;;;;;;;;;;;4.13;53.05;102502.05;107650;1254;105663;-64
2024/02/19 09:24:36;;;;;;;;;;;;;;;4.18;52.38;102499.41;107551;1254;107716;-65
2024/02/19 09:27:04;;;;;;;;;;;;;;;4.25;52.19;102496.14;107553;1253;96475;-64
2024/02/19 09:29:32;;;;;;;;;;;;;;;4.31;52.41;102495.59;107606;1253;96482;-64
2024/02/19 09:32:03;;;;;;;;;;;;;;;4.36;52.59;102492.03;107667;1253;110666;-63
2024/02/19 09:34:33;;;;;;;;;;;;;;;4.43;51.55;102487.89;107598;1254;108420;-64
2024/02/19 09:37:02;;;;;;;;;;;;;;;4.40;51.63;102486.03;107581;1254;106772;-65
2024/02/19 09:39:31;;;;;;;;;;;;;;;4.38;51.39;102482.91;107604;1253;96440;-62
2024/02/19 09:41:59;;;;;;;;;;;;;;;4.44;51.96;102477.91;107647;1252;96564;-63
2024/02/19 09:44:29;;;;;;;;;;;;;;;4.51;51.73;102474.64;107621;1253;110775;-63
2024/02/19 09:47:00;;;;;;;;;;;;;;;4.50;51.11;102473.23;107576;1254;107899;-63
2024/02/19 09:49:30;;;;;;;;;;;;;;;4.48;50.54;102471.89;107615;1254;109018;-62
2024/02/19 09:52:02;;;;;;;;;;;;;;;4.43;50.69;102470.31;107580;1253;96482;-63
2024/02/19 09:54:31;;;;;;;;;;;;;;;4.42;50.62;102465.02;107588;1254;96562;-64
2024/02/19 09:56:59;;;;;;;;;;;;;;;4.47;50.81;102461.83;107656;1255;109427;-65
2024/02/19 09:59:28;;;;;;;;;;;;;;;4.55;50.76;102450.71;107595;1251;108044;-64
2024/02/19 10:01:57;;;;;;;;;;;;;;;4.63;50.44;102447.89;107628;1251;108450;-64
2024/02/19 10:04:27;;;;;;;;;;;;;;;4.68;50.57;102446.13;107591;1254;96500;-62
2024/02/19 10:06:59;;;;;;;;;;;;;;;4.75;50.40;102445.70;107615;1254;96567;-64
2024/02/19 10:09:28;;;;;;;;;;;;;;;4.77;49.81;102444.36;107649;1254;109602;-61
2024/02/19 10:11:57;;;;;;;;;;;;;;;4.72;49.98;102438.35;107534;1254;108588;-62
2024/02/19 10:14:28;;;;;;;;;;;;;;;4.72;50.33;102432.47;107648;1254;108156;-63
2024/02/19 10:16:56;;;;;;;;;;;;;;;4.75;50.38;102431.48;107593;1252;96502;-64
2024/02/19 10:19:25;;;;;;;;;;;;;;;4.68;49.58;102426.04;107615;1255;96593;-64
2024/02/19 10:21:55;;;;;;;;;;;;;;;4.65;50.06;102428.10;107650;1254;110378;-63
2024/02/19 10:24:23;;;;;;;;;;;;;;;4.68;50.57;102426.39;107624;1255;108288;-64
2024/02/19 10:26:51;;;;;;;;;;;;;;;4.69;50.31;102426.55;107574;1254;107619;-63
2024/02/19 10:29:21;;;;;;;;;;;;;;;4.69;50.33;102417.66;107582;1254;96350;-65
2024/02/19 10:31:49;;;;;;;;;;;;;;;4.71;50.34;102412.79;107537;1254;96575;-64
2024/02/19 10:34:18;;;;;;;;;;;;;;;4.75;50.62;102410.70;107571;1254;110149;-64
2024/02/19 10:36:47;;;;;;;;;;;;;;;4.83;50.71;102406.63;107554;1251;108007;-63
2024/02/19 10:39:16;;;;;;;;;;;;;;;4.90;49.97;102404.98;107534;1254;108500;-62
2024/02/19 10:41:44;;;;;;;;;;;;;;;4.90;49.19;102398.20;107642;1251;96475;-62
2024/02/19 10:44:12;;;;;;;;;;;;;;;4.83;49.52;102394.55;107619;1251;96516;-63
2024/02/19 10:46:41;;;;;;;;;;;;;;;4.80;49.62;102388.08;107631;1251;109857;-62
2024/02/19 10:49:10;;;;;;;;;;;;;;;4.81;49.80;102383.60;107611;1251;108055;-63
2024/02/19 10:51:39;;;;;;;;;;;;;;;4.81;49.62;102376.30;107592;1251;108130;-64
2024/02/19 10:54:08;;;;;;;;;;;;;;;4.84;49.73;102372.46;107566;1253;96514;-63
2024/02/19 10:56:37;;;;;;;;;;;;;;;4.94;50.06;102369.05;107607;1251;96504;-65
2024/02/19 10:59:09;;;;;;;;;;;;;;;5.07;49.96;102366.80;107566;1254;110352;-63
2024/02/19 11:01:37;;;;;;;;;;;;;;;5.21;50.35;102362.84;107623;1254;108474;-64
2024/02/19 11:04:15;;;;;;;;;;;;;;;5.36;49.73;102356.75;107621;1251;108314;-64
2024/02/19 11:06:54;;;;;;;;;;;;;;;5.41;49.10;102354.23;107592;1251;96504;-64
2024/02/19 11:09:29;;;;;;;;;;;;;;;5.39;48.93;102349.84;107575;1253;96574;-63
2024/02/19 11:11:59;;;;;;;;;;;;;;;5.42;48.95;102347.23;107646;1252;110404;-64
2024/02/19 11:14:32;;;;;;;;;;;;;;;5.36;48.82;102346.93;107588;1252;108838;-62
2024/02/19 11:17:02;;;;;;;;;;;;;;;5.28;48.71;102346.57;107654;1251;108435;-64
2024/02/19 11:19:40;;;;;;;;;;;;;;;5.25;49.56;102341.67;107574;1252;96718;-64
2024/02/19 11:22:11;;;;;;;;;;;;;;;5.28;49.17;102340.70;107713;1251;96484;-63
2024/02/19 11:24:40;;;;;;;;;;;;;;;5.15;49.05;102339.06;107624;1251;109181;-62
2024/02/19 11:27:09;;;;;;;;;;;;;;;5.03;49.24;102338.48;107633;1251;107845;-62
2024/02/19 11:29:38;;;;;;;;;;;;;;;4.97;49.51;102334.98;107584;1251;108541;-64
2024/02/19 11:32:19;;;;;;;;;;;;;;;4.96;49.36;102331.30;107602;1251;96597;-64
2024/02/19 11:34:50;;;;;;;;;;;;;;;4.96;49.47;102328.63;107633;1251;96478;-65
2024/02/19 11:37:19;;;;;;;;;;;;;;;5.07;49.43;102321.42;107616;1250;110326;-64
2024/02/19 11:39:48;;;;;;;;;;;;;;;5.15;49.54;102320.03;107581;1254;107526;-63
2024/02/19 11:42:17;;;;;;;;;;;;;;;5.20;49.16;102316.82;107518;1253;108180;-63
2024/02/19 11:44:47;;;;;;;;;;;;;;;5.25;49.46;102315.92;107643;1251;96831;-63
2024/02/19 11:47:16;;;;;;;;;;;;;;;5.28;49.31;102309.89;107652;1251;96586;-63
2024/02/19 11:49:45;;;;;;;;;;;;;;;5.30;49.47;102307.34;107638;1250;110982;-63
2024/02/19 11:52:16;;;;;;;;;;;;;;;5.41;49.19;102299.04;107692;1251;107712;-65
2024/02/19 11:54:51;;;;;;;;;;;;;;;5.45;48.72;102296.41;107626;1251;108559;-65
2024/02/19 11:57:22;;;;;;;;;;;;;;;5.41;48.70;102289.61;107559;1252;96507;-65
2024/02/19 11:59:55;;;;;;;;;;;;;;;5.37;48.65;102289.77;107615;1252;96494;-65
2024/02/19 12:02:24;;;;;;;;;;;;;;;5.37;49.07;102283.73;107617;1254;109969;-61
2024/02/19 12:04:53;;;;;;;;;;;;;;;5.41;48.89;102281.45;107585;1255;108485;-64
2024/02/19 12:07:22;;;;;;;;;;;;;;;5.45;48.70;102283.41;107561;1254;107945;-64
2024/02/19 12:09:50;;;;;;;;;;;;;;;5.43;48.81;102280.96;107682;1253;96663;-63
2024/02/19 12:12:20;;;;;;;;;;;;;;;5.46;49.31;102275.72;107590;1251;96471;-63
2024/02/19 12:14:48;;;;;;;;;;;;;;;5.51;49.33;102271.92;107597;1254;110003;-64
2024/02/19 12:17:17;;;;;;;;;;;;;;;5.55;48.92;102266.63;107611;1254;107882;-64
2024/02/19 12:19:45;;;;;;;;;;;;;;;5.51;48.91;102267.84;107451;1254;108413;-64
2024/02/19 12:22:15;;;;;;;;;;;;;;;5.44;48.54;102269.58;107588;1251;96503;-63
2024/02/19 12:24:44;;;;;;;;;;;;;;;5.42;49.06;102270.38;107623;1251;97738;-62
2024/02/19 12:27:12;;;;;;;;;;;;;;;5.42;49.14;102270.38;107618;1254;110466;-62
2024/02/19 12:29:41;;;;;;;;;;;;;;;5.42;49.50;102269.11;107638;1254;107900;-62
2024/02/19 12:32:10;;;;;;;;;;;;;;;5.39;49.08;102269.27;107620;1254;108343;-62
2024/02/19 12:34:39;;;;;;;;;;;;;;;5.36;49.33;102264.91;107599;1252;96513;-63
2024/02/19 12:37:08;;;;;;;;;;;;;;;5.33;49.46;102262.38;107597;1253;97129;-64
2024/02/19 12:39:36;;;;;;;;;;;;;;;5.28;49.54;102266.14;107457;1258;109414;-64